Jesús González

Jefe de ojeadores - Valencia
25 Nov 2027
Jueves
Continuar

Personalidad

Adaptabilidad (13) Ambición (1) Controversia (3) Lealtad (11) Presión (2) Profesionalismo (9) Deportividad (15) Temperamento (3)

Perfil

Estilo de dirección Democrático
Licencia Continental C
Determinación 8
Gestión de personas 14
Motivación 12
Disciplina 15
Satisfacción laboral
100%
Fatiga
0%
Cargo Jefe de ojeadores
Salario 107.4K p/s
Contrato 14.03.2028

Rendimiento

Comportamiento Bueno
Efectividad del entrenamiento
52%
Desarrollo de jugadores
55%
Prevención de lesiones
75%
Implementación táctica
40%

Eventos recientes

Evaluó a un jugador ahora
Asistió a una reunión de captación ahora
Asistió a una reunión de captación ahora
Recomendó un objetivo de fichaje ahora
Recomendó un objetivo de fichaje ahora
Recomendó un objetivo de fichaje ahora
Evaluó a un jugador 7d atrás
Evaluó a un jugador 7d atrás

Actualmente siguiendo

238
Jugador Club Estado Habilidad Confianza Observado Última observación Último voto
Axel Tape Bayer Leverkusen Activo 130 / 141 40% 8 22.11.2027 -
Héctor Fort Real Sociedad Activo 141 / 144 40% 2 22.11.2027 -
Bahia Criciuma Activo 114 / 118 40% 1 22.11.2027 -
Caleb Yirenkyi Coventry City Activo 142 / 148 40% 10 21.11.2027 -
Esquerdinha Shrewsbury Town Activo 120 / 127 40% 1 21.11.2027 -
Sebastián Ramírez Jaguares Activo 109 / 117 40% 9 20.11.2027 -
Josh King Chelsea Activo 146 / 157 40% 8 19.11.2027 -
Juan Morán Godoy Cruz Activo 108 / 119 40% 6 19.11.2027 -
David Valencia Alianza Petrolera Negociando 122 / 135 40% 11 16.11.2027 -
Mads Bomholt Stabaek Activo 110 / 105 40% 3 16.11.2027 -
Germán Barbas Penarol Activo 105 / 104 40% 1 16.11.2027 -
Felipe Obradovich Ferro Carril Oeste Activo 105 / 113 40% 2 12.11.2027 -
Jorge Salinas Racing Santander Activo 130 / 136 40% 2 12.11.2027 -
Myles Lewis-Skelly Birmingham Activo 153 / 164 40% 4 12.11.2027 -
Alejandro Almaraz Nueva Chicago Activo 107 / 108 40% 3 11.11.2027 -
Nazareno Roselli Defensa y Justicia Activo 113 / 117 40% 6 10.11.2027 -
Archie Gray Derby County Activo 147 / 161 40% 5 10.11.2027 -
Celías Ingenthron Vélez Activo 119 / 133 40% 4 09.11.2027 -
Tobías Andrada Virtus Entella Activo 122 / 136 40% 2 07.11.2027 -
Josh Nichols Tranmere Rovers Activo 120 / 131 40% 2 07.11.2027 -
Hervin Goyes Deportivo Pasto Activo 104 / 112 40% 4 06.11.2027 -
Ronan Kpakio Cardiff City Activo 125 / 129 40% 1 05.11.2027 -
Kauã Moraes Cruzeiro Activo 130 / 123 40% 2 03.11.2027 -
Marc Bernal Real Sociedad Activo 153 / 159 40% 2 03.11.2027 -
Adam Aznou Everton Activo 129 / 133 40% 3 29.10.2027 -
Agustín Obregón River Plate Activo 109 / 112 40% 2 28.10.2027 -
Honest Ahanor Atalanta Activo 132 / 147 40% 1 28.10.2027 -
Ayden Heaven Luton Town Activo 143 / 141 40% 6 26.10.2027 -
Vitor Reis Manchester City Activo 134 / 144 40% 4 22.10.2027 -
Luis Otávio Colorado Rapids Activo 113 / 123 40% 6 20.10.2027 -
Jens Hjertø-Dahl Hull City Activo 129 / 138 40% 3 20.10.2027 -
Elkin Rivero Atletico Nacional Activo 101 / 105 40% 2 15.10.2027 -
Camilo Rey Domenech Boca Juniors Activo 120 / 122 40% 4 12.10.2027 -
Lewis Miley Chelsea Activo 146 / 147 40% 1 10.10.2027 -
Hugo Rojas Instituto Activo 103 / 105 40% 1 04.10.2027 -
Eliás Montiel Werder Bremen Activo 132 / 134 40% 2 26.09.2027 -
Tobias Moi Bodo/Glimt Activo 106 / 124 40% 2 26.09.2027 -
Samuel Martín Millonarios Activo 104 / 116 40% 1 26.09.2027 -
Teo Rodríguez Pagano River Plate Activo 121 / 114 40% 1 24.09.2027 -
Johan Manzambi Newcastle United Activo 147 / 149 40% 5 23.09.2027 -
Pablo Aguiar Independiente Activo 109 / 119 40% 1 23.09.2027 -
Thiago Helguera Braga Activo 125 / 133 40% 2 19.09.2027 -
Julián Bazán Philadelphia Union Activo 112 / 123 40% 1 15.09.2027 -
Juan Cruz Cortazzo Gimnasia La Plata Activo 109 / 108 40% 1 13.09.2027 -
Leny Yoro Manchester United Activo 148 / 159 40% 1 13.09.2027 -
Mbekezeli Mbokazi Chicago Fire Activo 128 / 127 40% 1 09.09.2027 -
Ulises Giménez River Plate Activo 108 / 124 40% 1 07.09.2027 -
Samuel Lucero Defensa y Justicia Activo 119 / 121 40% 7 05.07.2027 -
Dylan Lawlor Cardiff City Activo 119 / 126 40% 2 05.07.2027 -
Izan Merino Málaga Perdido 129 / 118 40% 4 30.06.2027 -
João Simões Sporting CP Activo 135 / 144 40% 2 30.06.2027 -
Daniel Kelly Oxford United Activo 111 / 120 40% 4 30.06.2027 -
Yusi Alavés Activo 131 / 142 40% 7 29.06.2027 -
Martim Cunha Porto Activo 107 / 112 40% 2 29.06.2027 -
Matías Gómez Granada Activo 118 / 121 40% 5 26.06.2027 -
Davide Bartesaghi AC Milan Activo 132 / 134 40% 2 26.06.2027 -
Warren Zaïre-Emery Paris Saint-Germain Activo 161 / 155 40% 4 25.06.2027 -
Christ Inao Oulaï Fiorentina Activo 140 / 133 40% 3 22.06.2027 -
José Pachuca Puebla Activo 112 / 126 40% 2 21.06.2027 -
Kevin Vazquez Cruz Azul Activo 141 / 136 40% 10 16.06.2027 -
Ernie Weaver AFC Wimbledon Activo 112 / 125 40% 3 15.06.2027 -
Cheveyo Tsawa Club Brugge Activo 117 / 135 40% 2 14.06.2027 -
Jorrel Hato Chelsea Activo 145 / 162 40% 4 03.06.2027 -
Germán Valera Elche Activo 138 / 132 40% 11 03.06.2027 -
Aune Heggebø West Bromwich Albion Activo 131 / 126 40% 1 03.06.2027 -
Davide Bartesaghi AC Milan Perdido 130 / 127 40% 1 03.06.2027 -
Exequiel Palacios Valencia Negociando 157 / 157 66% 1 01.06.2027 Aprobar
Carlos Álvarez Borussia Dortmund Negociando 136 / 139 66% 1 01.06.2027 Aprobar
Marc Guéhi Manchester City Perdido 166 / 166 68% 1 01.06.2027 -
Florian Wirtz Liverpool Informe listo 169 / 171 69% 1 01.06.2027 Aprobar
Lorenzo Palmisani Frosinone Activo 133 / 139 40% 5 30.05.2027 -
Tammy Abraham Aston Villa Activo 145 / 143 40% 11 30.05.2027 -
James Trafford Leeds United Activo 144 / 148 40% 5 30.05.2027 -
Giacomo Raspadori Atalanta Activo 148 / 144 40% 6 30.05.2027 -
Álex Padilla Athletic Bilbao Activo 135 / 138 40% 3 29.05.2027 -
Lucas Høgsberg RC Strasbourg Activo 137 / 135 40% 1 29.05.2027 -
Maroan Sannadi Athletic Bilbao Activo 136 / 129 40% 3 27.05.2027 -
Kai Havertz Arsenal Activo 162 / 152 40% 10 26.05.2027 -
Andrés Martín Racing Santander Activo 140 / 130 40% 12 26.05.2027 -
Ismaïla Sarr Crystal Palace Activo 147 / 156 40% 2 26.05.2027 -
João Pedro Chelsea Activo 152 / 150 40% 6 25.05.2027 -
Deniz Ertaş Konyaspor Activo 127 / 144 40% 5 25.05.2027 -
Walid Juma Al Shaab Activo 110 / 116 40% 1 25.05.2027 -
Diego Rossi Monterrey Activo 138 / 126 40% 6 24.05.2027 -
Ez Abde Girona Activo 156 / 155 40% 3 24.05.2027 -
Morgan Rogers Chelsea Activo 165 / 151 40% 3 23.05.2027 -
Oli McBurnie Hull City Activo 139 / 126 40% 4 21.05.2027 -
Alexander Sørloth Atlético Madrid Activo 149 / 151 40% 2 21.05.2027 -
Mikel Oyarzábal Real Sociedad Activo 165 / 154 40% 5 20.05.2027 -
Pascal Loretz Luzern Activo 134 / 139 40% 5 19.05.2027 -
Aitor Fraga Real Sociedad Activo 132 / 133 40% 1 19.05.2027 -
Lukáš Horníček Newcastle United Activo 149 / 157 40% 1 19.05.2027 -
Jon Morcillo Almería Activo 133 / 132 40% 1 19.05.2027 -
Gabriel Jesus Barcelona Activo 152 / 165 40% 7 16.05.2027 -
Khalis Merah Toulouse FC Activo 119 / 132 40% 1 16.05.2027 -
Hany Mukhtar Spezia Activo 139 / 140 40% 1 16.05.2027 -
Javi Puado Espanyol Activo 150 / 140 40% 4 15.05.2027 -
Gonçalo Ramos AC Milan Activo 154 / 163 40% 4 15.05.2027 -
Matheus Cunha Manchester United Activo 159 / 164 40% 6 13.05.2027 -
Radek Vítek Middlesbrough Activo 136 / 138 40% 6 13.05.2027 -
Ademola Lookman Atlético Madrid Activo 163 / 168 40% 5 13.05.2027 -
Dango Ouattara Brentford Activo 145 / 155 40% 6 09.05.2027 -
Viktor Gyökeres Arsenal Activo 161 / 162 40% 5 09.05.2027 -
Ferran Torres Paris Saint-Germain Activo 170 / 169 40% 9 09.05.2027 Observar
Mathieu Patouillet Stade Brestois Activo 118 / 127 40% 7 07.05.2027 -
Fedor Lapoukhov CSKA Sofia Activo 115 / 110 40% 2 07.05.2027 -
Federico Chiesa Liverpool Activo 159 / 146 40% 3 07.05.2027 -
Thiago Brentford Activo 150 / 143 40% 8 07.05.2027 -
Antonio Gomis Vizela Activo 125 / 134 40% 5 30.04.2027 -
Kostantis Tzolakis Hull City Activo 141 / 141 40% 3 24.04.2027 -
Fahad Hassan Al Shabab Activo 125 / 118 40% 3 23.04.2027 -
Cody Gakpo Liverpool Activo 157 / 160 40% 5 18.04.2027 -
Robin Roefs Sunderland Activo 142 / 140 40% 4 16.04.2027 -
Yussif Saidu Zaragoza Activo 125 / 113 40% 1 14.04.2027 -
Finn Jeltsch VfB Stuttgart Activo 134 / 142 40% 1 14.04.2027 -
Gonçalo Oliveira Benfica Activo 112 / 116 40% 1 14.04.2027 -
Abel Ruiz Girona Activo 144 / 135 40% 2 13.04.2027 -
João Teixeira Porto Activo 103 / 105 40% 1 12.04.2027 -
Salvador Blopá Casa Pia Activo 120 / 129 40% 1 12.04.2027 -
Noah Nartey Olympique Lyonnais Activo 136 / 139 40% 1 12.04.2027 -
Mohammed Kudus Tottenham Activo 156 / 152 40% 4 11.04.2027 -
Guillaume Restes Toulouse FC Activo 136 / 142 40% 4 10.04.2027 -
Marcus Rashford Manchester United Activo 155 / 156 40% 4 10.04.2027 -
Jorge De Frutos Rayo Vallecano Activo 143 / 139 40% 3 10.04.2027 -
Erick Reyes Toluca Activo 143 / 138 40% 4 09.04.2027 -
Diego Lainez Tigres Activo 130 / 122 40% 5 07.04.2027 -
Derensili Sanches Fernandes Huddersfield Town Activo 128 / 117 40% 2 07.04.2027 -
Edoardo Motta Lazio Activo 129 / 137 40% 1 05.04.2027 -
Omar El Hilali Espanyol Activo 147 / 158 40% 1 05.04.2027 -
William Saliba Arsenal Activo 174 / 170 40% 1 05.04.2027 -
Levi Colwill Chelsea Activo 162 / 163 40% 1 05.04.2027 -
Pablo Campos Levante Activo 127 / 122 40% 4 03.04.2027 -
Gabriel Martinelli Brighton Activo 166 / 164 40% 10 30.03.2027 -
Senne Lammens Manchester United Activo 156 / 146 40% 5 29.03.2027 -
Aitor Ruibal Betis Activo 141 / 132 40% 1 24.03.2027 -
Christos Mouzakitis Hull City Activo 132 / 147 40% 4 22.03.2027 -
Louis Leroux FC Nantes Activo 127 / 130 40% 1 22.03.2027 -
Jan Bürger Gillingham Activo 113 / 125 40% 1 22.03.2027 -
Petar Musa Adana Demirspor Activo 134 / 146 40% 1 22.03.2027 -
Nicolas Jackson Aston Villa Activo 148 / 140 40% 4 21.03.2027 -
Borja Mayoral Getafe Activo 147 / 128 40% 5 21.03.2027 -
Daniil Khudyakov Sturm Graz Activo 126 / 131 40% 7 20.03.2027 -
David Ozoh Derby County Activo 118 / 135 40% 2 19.03.2027 -
Razvan Balasa Crvena Zvezda Activo 142 / 146 40% 4 17.03.2027 -
Jonathan Dubasin Osasuna Activo 145 / 131 40% 2 10.03.2027 -
Bradley Barcola Liverpool Activo 165 / 152 40% 7 09.03.2027 -
Fotis Ioannidis Rio Ave Activo 144 / 142 40% 1 02.03.2027 -
Álex Baena Atlético Madrid Activo 168 / 149 40% 9 28.02.2027 -
Taty Castellanos West Ham United Activo 143 / 155 40% 2 25.02.2027 -
Georginio Rutter Brighton Activo 145 / 153 40% 1 18.02.2027 -
Youssef En-Nesyri Al-Ittihad Activo 138 / 128 40% 2 16.02.2027 -
Paulinho Palmeiras Activo 141 / 151 40% 3 12.02.2027 -
Adnan Courtois KV Oostende Activo 137 / 137 40% 2 12.02.2027 -
Hector Ramirez Newcastle United Activo 150 / 161 40% 1 12.02.2027 -
Oleksandr Saputin Poltava Activo 111 / 135 40% 2 29.01.2027 -
Alejandro Iturbe Elche Activo 116 / 129 40% 1 29.01.2027 -
Heorhii Yermakov Metalist Activo 109 / 121 40% 1 28.01.2027 -
Kyrylo Fesiun Shakhtar Activo 115 / 128 40% 1 18.01.2027 -
Éderson Feyenoord Activo 156 / 156 91% 1 01.01.2027 Aprobar
Raúl Rangel Sporting CP Negociando 132 / 132 66% 1 01.01.2027 Aprobar
Iliman N'Diaye Everton Activo 163 / 148 40% 5 31.12.2026 -
Kyriani Sabbe Club Brugge Activo 123 / 137 40% 2 29.12.2026 -
Joaquin Seys Club Brugge Activo 129 / 126 40% 1 29.12.2026 -
Nico O'Reilly Manchester City Activo 157 / 156 40% 5 28.12.2026 -
Ignacio Perruzzi San Lorenzo Activo 125 / 133 40% 3 26.12.2026 -
Victor Castillo Ceará Activo 130 / 139 40% 1 24.12.2026 -
Santiago Fernández Talleres Activo 118 / 134 40% 3 21.12.2026 -
Victor Froholdt Porto Activo 152 / 156 40% 1 18.12.2026 -
El Hadji Malick Diouf Brentford Activo 137 / 154 40% 1 17.12.2026 -
Matvey Kislyak CSKA Moscow Activo 134 / 123 40% 1 17.12.2026 -
Rayan Cherki Manchester City Activo 166 / 157 40% 6 15.12.2026 -
Ozziel Herrera Tigres Activo 128 / 134 40% 9 12.12.2026 -
Erick Sánchez OGC Nice Activo 144 / 141 40% 4 10.12.2026 -
Ramiro Sordo Santos Laguna Activo 128 / 113 40% 2 10.12.2026 -
Jack Hinshelwood Brighton Activo 138 / 150 40% 3 10.12.2026 -
James Dornelly Peterborough United Activo 102 / 105 40% 1 10.12.2026 -
Lucas Agazzi Defensor Sporting Activo 117 / 122 40% 3 08.12.2026 -
Alan Lescano Argentinos Juniors Activo 128 / 126 40% 8 07.12.2026 -
Tyler Fredricson Oldham Athletic Activo 102 / 102 40% 1 07.12.2026 -
Emi Rodriguez Leon Activo 118 / 117 40% 4 05.12.2026 -
Carlos Vicente Birmingham Activo 139 / 150 40% 4 04.12.2026 -
Tshepang Moremi Orlando Pirates Activo 113 / 113 40% 1 04.12.2026 -
Ezequiel Bullaude Santos Laguna Activo 121 / 130 40% 2 02.12.2026 -
Brian Rodríguez Club America Activo 128 / 128 40% 3 30.11.2026 -
Tyrhys Dolan Espanyol Activo 143 / 138 40% 1 30.11.2026 -
Martin Ødegaard Arsenal Activo 179 / 170 40% 6 27.11.2026 -
Rodrygo Real Madrid Activo 163 / 159 40% 2 26.11.2026 -
Pedri Barcelona Activo 178 / 190 40% 5 24.11.2026 -
Daniel Arcila Leon Activo 115 / 105 40% 1 24.11.2026 -
Johnny Cardoso Atlético Madrid Activo 159 / 149 40% 3 19.11.2026 -
Iker Benito Queretaro Activo 128 / 121 40% 3 18.11.2026 -
Johan Martínez Deportivo Cali Activo 125 / 133 40% 1 18.11.2026 -
Anthony Gordon Barcelona Activo 169 / 172 40% 1 17.11.2026 -
Oihan Sancet Athletic Bilbao Activo 161 / 170 40% 4 13.11.2026 -
Brian Gutiérrez Guadalajara Activo 128 / 129 40% 3 13.11.2026 -
Brahim Díaz Real Madrid Activo 156 / 136 40% 1 13.11.2026 -
Noah Sadiki Sunderland Activo 145 / 150 40% 3 12.11.2026 -
Tomás O'Connor Gimnasia y Esgrima Activo 122 / 120 40% 1 12.11.2026 -
Javier Mena Portimonense Activo 117 / 129 40% 4 10.11.2026 -
Nicolás Castro Toluca Activo 123 / 139 40% 1 05.11.2026 -
Joaquín Gho Argentinos Juniors Activo 127 / 121 40% 1 02.11.2026 -
Emerson Batalla Atletico Bucaramanga Activo 123 / 123 40% 2 30.10.2026 -
Declan Rice Arsenal Activo 184 / 177 40% 3 29.10.2026 -
Marcel Ruiz RC Lens Activo 143 / 152 40% 2 27.10.2026 -
Alexander Díaz Deportivo Riestra Activo 119 / 108 40% 1 27.10.2026 -
Dylan Borrero America de Cali Activo 114 / 121 40% 1 27.10.2026 -
Santiago Montiel Independiente Activo 126 / 119 40% 2 23.10.2026 -
Carlos Palacios Boca Juniors Activo 129 / 127 40% 2 23.10.2026 -
Matías Fernández Independiente Rivadavia Activo 123 / 124 40% 1 22.10.2026 -
Matko Miljevic Racing Club Activo 130 / 130 40% 1 22.10.2026 -
Enzo Fernández Manchester City Activo 166 / 174 40% 3 20.10.2026 -
Axel Frugone Defensor Sporting Activo 115 / 109 40% 2 20.10.2026 -
Alexis González Lanús Activo 96 / 110 40% 1 20.10.2026 -
Pablo Barrios Atlético Madrid Activo 154 / 152 40% 1 16.10.2026 -
Tiago Palacios Estudiantes Activo 127 / 122 40% 1 12.10.2026 -
Alexis Cuello San Lorenzo Activo 125 / 121 40% 4 11.10.2026 -
Juan Pablo Domínguez Leon Activo 127 / 116 40% 1 11.10.2026 -
Nahuel Herrera Penarol Activo 120 / 116 40% 3 07.10.2026 -
Mateo Mendoza Godoy Cruz Activo 119 / 138 40% 3 06.10.2026 -
Yuber Quiñónes Deportivo Pereira Activo 118 / 111 40% 1 01.10.2026 -
Efraín Álvarez Guadalajara Activo 131 / 131 40% 2 28.09.2026 -
Moisés Caicedo Chelsea Activo 173 / 180 40% 1 28.09.2026 -
Rémi Lemoine Chamois Niortais Activo 160 / 161 40% 1 25.09.2026 -
Vicente Poggi Godoy Cruz Activo 124 / 114 40% 1 25.09.2026 -
Martín Campos Ferro Carril Oeste Activo 116 / 124 40% 1 22.09.2026 -
Pedro Vite Pumas UNAM Activo 121 / 124 40% 1 18.09.2026 -
Cole Palmer Chelsea Activo 174 / 183 40% 1 16.09.2026 -
Aníbal Moreno River Plate Activo 131 / 140 40% 2 15.09.2026 -
Martín Ortega Newell's Old Boys Activo 120 / 131 40% 1 14.09.2026 -
Kevin Zenón Boca Juniors Activo 129 / 114 40% 1 13.09.2026 -
Aarón Molinas Defensa y Justicia Activo 129 / 125 40% 1 13.09.2026 -
Lucas Carrizo Plaza Colonia Activo 114 / 111 40% 1 13.09.2026 -
Eric Meza Estudiantes Activo 129 / 135 40% 1 12.09.2026 -
Rodrigo González Mitre Activo 115 / 117 40% 1 08.09.2026 -
Nazareno Kihm Ferro Carril Oeste Activo 106 / 108 40% 1 02.09.2026 -
Ignacio Ovando Rosario Central Activo 97 / 123 40% 1 02.09.2026 -
Antoine Semenyo Manchester City Activo 153 / 148 40% 1 01.08.2026 -
Dani Olmo Barcelona Activo 155 / 156 40% 1 01.08.2026 -